createdAt,value
2023-03-27T00:02:06.249Z,101137.72
2023-03-27T00:04:32.900Z,101252.81
2023-03-27T00:06:59.639Z,101245.53
2023-03-27T00:09:27.835Z,101160.44
2023-03-27T00:11:56.287Z,101259.84
2023-03-27T00:14:23.962Z,101242.09
2023-03-27T00:16:51.172Z,101259.50
2023-03-27T00:19:18.971Z,101247.41
2023-03-27T00:21:45.810Z,101261.47
2023-03-27T00:24:12.768Z,101211.50
2023-03-27T00:26:40.794Z,101167.28
2023-03-27T00:29:07.970Z,101169.25
2023-03-27T00:31:35.069Z,101286.09
2023-03-27T00:34:02.709Z,101285.72
2023-03-27T00:36:29.327Z,101297.88
2023-03-27T00:38:56.029Z,101213.59
2023-03-27T00:41:23.390Z,101278.47
2023-03-27T00:43:53.355Z,101274.28
2023-03-27T00:46:38.746Z,101333.97
2023-03-27T00:49:09.696Z,101230.03
2023-03-27T00:51:37.777Z,101300.28
2023-03-27T00:54:06.155Z,101296.19
2023-03-27T00:56:33.945Z,101305.94
2023-03-27T00:59:03.390Z,101233.00
2023-03-27T01:01:32.112Z,101347.50
2023-03-27T01:04:06.266Z,101333.84
2023-03-27T01:06:33.739Z,101325.22
2023-03-27T01:09:00.422Z,101322.41
2023-03-27T01:11:51.205Z,101358.75
2023-03-27T01:14:42.672Z,101226.19
2023-03-27T01:17:40.294Z,101351.13
2023-03-27T01:20:30.180Z,101355.34
2023-03-27T01:23:35.316Z,101229.78
2023-03-27T01:26:35.700Z,101371.59
2023-03-27T01:29:28.145Z,101262.19
2023-03-27T01:32:17.570Z,101380.25
2023-03-27T01:35:01.130Z,101379.34
2023-03-27T01:37:52.305Z,100986.31
2023-03-27T01:40:27.884Z,101397.22
2023-03-27T01:43:10.581Z,101374.84
2023-03-27T01:45:46.473Z,101392.19
2023-03-27T01:48:25.912Z,101193.16
2023-03-27T01:50:57.424Z,101248.84
2023-03-27T01:53:40.628Z,101265.50
2023-03-27T01:56:26.081Z,101344.34
2023-03-27T01:58:59.290Z,101384.66
2023-03-27T02:01:38.372Z,101328.69
2023-03-27T02:04:10.826Z,101200.31
2023-03-27T02:06:47.870Z,101393.09
2023-03-27T02:09:43.312Z,101321.28
2023-03-27T02:12:16.463Z,101370.75
2023-03-27T02:15:22.997Z,101394.09
2023-03-27T02:17:53.080Z,101431.63
2023-03-27T02:20:20.915Z,101300.91
2023-03-27T02:22:50.519Z,101425.47
2023-03-27T02:25:32.515Z,101429.78
2023-03-27T02:28:12.560Z,101437.44
2023-03-27T02:30:47.154Z,101439.56
2023-03-27T02:34:05.535Z,101451.06
2023-03-27T02:36:54.972Z,101449.19
2023-03-27T02:39:50.708Z,101452.72
2023-03-27T02:42:42.949Z,101393.53
2023-03-27T02:45:47.915Z,101459.22
2023-03-27T02:48:38.777Z,101456.50
2023-03-27T02:51:15.323Z,101468.94
2023-03-27T02:54:11.420Z,101465.97
2023-03-27T02:56:44.757Z,101415.78
2023-03-27T02:59:35.606Z,101428.75
2023-03-27T03:02:09.562Z,101445.19
2023-03-27T03:04:57.130Z,101427.50
2023-03-27T03:07:30.069Z,101451.97
2023-03-27T03:09:56.648Z,101367.25
2023-03-27T03:12:23.279Z,101422.66
2023-03-27T03:14:50.063Z,101421.97
2023-03-27T03:17:16.908Z,101343.31
2023-03-27T03:19:45.262Z,101472.13
2023-03-27T03:22:13.045Z,101413.38
2023-03-27T03:24:42.034Z,101478.53
2023-03-27T03:27:10.728Z,101451.56
2023-03-27T03:29:48.492Z,101391.13
2023-03-27T03:32:18.439Z,101476.19
2023-03-27T03:34:48.353Z,101500.53
2023-03-27T03:37:15.724Z,101512.63
2023-03-27T03:39:42.365Z,101482.38
2023-03-27T03:42:09.024Z,101526.06
2023-03-27T03:44:37.176Z,101506.31
2023-03-27T03:47:22.685Z,101424.41
2023-03-27T03:49:50.344Z,101496.09
2023-03-27T03:52:17.466Z,101531.66
2023-03-27T03:54:46.560Z,101537.91
2023-03-27T03:57:13.488Z,101540.94
2023-03-27T03:59:40.655Z,101548.06
2023-03-27T04:02:37.535Z,101458.38
2023-03-27T04:05:10.496Z,101441.78
2023-03-27T04:07:39.900Z,101548.47
2023-03-27T04:10:19.177Z,101581.13
2023-03-27T04:12:48.488Z,101565.84
2023-03-27T04:15:22.414Z,101577.47
2023-03-27T04:18:08.138Z,101493.38
2023-03-27T04:20:35.830Z,101544.47
2023-03-27T04:23:04.734Z,101584.13
2023-03-27T04:25:35.577Z,101572.78
2023-03-27T04:28:02.500Z,101590.38
2023-03-27T04:30:36.999Z,101471.22
2023-03-27T04:33:22.972Z,101571.94
2023-03-27T04:36:07.222Z,101598.88
2023-03-27T04:38:53.185Z,101612.78
2023-03-27T04:41:21.230Z,101591.28
2023-03-27T04:43:47.876Z,101498.06
2023-03-27T04:46:14.442Z,101546.09
2023-03-27T04:48:43.000Z,101612.78
2023-03-27T04:51:20.882Z,101610.44
2023-03-27T04:53:48.161Z,101472.66
2023-03-27T04:56:16.136Z,101619.47
2023-03-27T04:58:45.695Z,101551.97
2023-03-27T05:01:15.583Z,101594.16
2023-03-27T05:04:02.501Z,101615.31
2023-03-27T05:06:53.390Z,101532.03
2023-03-27T05:09:21.689Z,101647.16
2023-03-27T05:11:50.073Z,101546.66
2023-03-27T05:14:22.084Z,101639.81
2023-03-27T05:16:50.520Z,101620.69
2023-03-27T05:19:19.362Z,101629.94
2023-03-27T05:21:52.480Z,101636.81
2023-03-27T05:24:19.506Z,101624.34
2023-03-27T05:26:47.131Z,101652.41
2023-03-27T05:29:15.308Z,101663.06
2023-03-27T05:31:44.892Z,101618.13
2023-03-27T05:34:50.707Z,101503.31
2023-03-27T05:37:18.001Z,101663.56
2023-03-27T05:40:17.046Z,101681.47
2023-03-27T05:42:46.972Z,101669.19
2023-03-27T05:45:14.096Z,101667.16
2023-03-27T05:47:50.644Z,101635.09
2023-03-27T05:50:19.154Z,101648.34
2023-03-27T05:52:47.791Z,101585.00
2023-03-27T05:55:17.366Z,101665.88
2023-03-27T05:57:43.975Z,101663.56
2023-03-27T06:00:16.357Z,101604.66
2023-03-27T06:02:44.868Z,101605.66
2023-03-27T06:05:15.288Z,101587.75
2023-03-27T06:07:50.702Z,101670.31
2023-03-27T06:10:20.166Z,101719.84
2023-03-27T06:13:13.839Z,101723.03
2023-03-27T06:15:54.349Z,101618.84
2023-03-27T06:18:43.793Z,101615.53
2023-03-27T06:21:13.484Z,101634.16
2023-03-27T06:23:40.178Z,101706.81
2023-03-27T06:26:12.673Z,101712.38
2023-03-27T06:28:40.396Z,101710.75
2023-03-27T06:31:08.425Z,101734.56
2023-03-27T06:33:41.085Z,101686.91
2023-03-27T06:36:18.172Z,101694.16
2023-03-27T06:38:47.429Z,101635.94
2023-03-27T06:41:14.587Z,101637.91
2023-03-27T06:44:16.648Z,101715.78
2023-03-27T06:47:10.092Z,101639.88
2023-03-27T06:50:07.462Z,101712.41
2023-03-27T06:52:34.361Z,101661.34
2023-03-27T06:55:20.234Z,101714.88
2023-03-27T06:57:55.396Z,101659.00
2023-03-27T07:00:25.832Z,101765.44
2023-03-27T07:03:13.354Z,101688.97
2023-03-27T07:05:56.826Z,101739.16
2023-03-27T07:08:26.897Z,101684.19
2023-03-27T07:11:10.570Z,101770.03
2023-03-27T07:13:41.611Z,101762.59
2023-03-27T07:16:15.652Z,101708.38
2023-03-27T07:18:42.400Z,101744.56
2023-03-27T07:21:09.257Z,101760.63
2023-03-27T07:23:35.904Z,101778.19
2023-03-27T07:26:05.996Z,101765.09
2023-03-27T07:29:10.944Z,101795.19
2023-03-27T07:31:55.904Z,101748.84
2023-03-27T07:34:49.105Z,101719.06
2023-03-27T07:37:38.107Z,101722.81
2023-03-27T07:40:40.510Z,101814.22
2023-03-27T07:43:26.120Z,101774.97
2023-03-27T07:45:53.021Z,101796.28
2023-03-27T07:48:19.630Z,101722.69
2023-03-27T07:50:47.999Z,101815.53
2023-03-27T07:53:33.553Z,101806.47
2023-03-27T07:56:10.875Z,101735.53
2023-03-27T07:58:38.930Z,101786.56
2023-03-27T08:01:06.207Z,101819.59
2023-03-27T08:03:34.212Z,101748.44
2023-03-27T08:06:01.334Z,101797.31
2023-03-27T08:08:30.685Z,101727.78
2023-03-27T08:11:01.686Z,101789.16
2023-03-27T08:13:35.640Z,101767.78
2023-03-27T08:16:10.399Z,101787.88
2023-03-27T08:18:37.894Z,101809.59
2023-03-27T08:21:08.400Z,101818.81
2023-03-27T08:23:37.530Z,101753.25
2023-03-27T08:26:22.491Z,101801.53
2023-03-27T08:28:56.903Z,101827.16
2023-03-27T08:31:30.467Z,101826.47
2023-03-27T08:34:01.765Z,101803.66
2023-03-27T08:36:40.132Z,101829.22
2023-03-27T08:39:08.171Z,101808.00
2023-03-27T08:41:51.575Z,101780.28
2023-03-27T08:44:30.780Z,101754.47
2023-03-27T08:47:04.370Z,101857.06
2023-03-27T08:49:42.107Z,101814.69
2023-03-27T08:52:32.677Z,101775.09
2023-03-27T08:55:06.797Z,101854.16
2023-03-27T08:57:38.347Z,101833.91
2023-03-27T09:00:21.201Z,101776.09
2023-03-27T09:02:57.501Z,101861.84
2023-03-27T09:05:40.805Z,101786.50
2023-03-27T09:08:32.149Z,101816.75
2023-03-27T09:11:24.853Z,101868.06
2023-03-27T09:13:57.700Z,101852.97
2023-03-27T09:16:39.654Z,101884.91
2023-03-27T09:19:17.156Z,101874.75
2023-03-27T09:21:51.249Z,101868.75
2023-03-27T09:24:41.694Z,101796.19
2023-03-27T09:27:37.714Z,101794.94
2023-03-27T09:30:29.983Z,101867.50
2023-03-27T09:33:12.280Z,101864.19
2023-03-27T09:35:42.245Z,101882.69
2023-03-27T09:38:31.955Z,101851.38
2023-03-27T09:41:12.866Z,101921.53
2023-03-27T09:43:59.853Z,101926.41
2023-03-27T09:46:28.297Z,101815.03
2023-03-27T09:49:09.529Z,101920.13
2023-03-27T09:51:51.608Z,101825.03
2023-03-27T09:54:52.142Z,101842.47
2023-03-27T09:57:21.120Z,101899.75
2023-03-27T10:00:09.437Z,101901.13
2023-03-27T10:02:41.609Z,101857.03
2023-03-27T10:05:20.106Z,101886.81
2023-03-27T10:07:52.086Z,101910.56
2023-03-27T10:10:45.685Z,101911.97
2023-03-27T10:13:27.235Z,101850.81
2023-03-27T10:16:04.454Z,101913.94
2023-03-27T10:18:44.181Z,101826.50
2023-03-27T10:21:26.122Z,101832.78
2023-03-27T10:24:18.729Z,101823.00
2023-03-27T10:27:12.077Z,101878.72
2023-03-27T10:29:45.765Z,101884.88
2023-03-27T10:32:14.785Z,101880.50
2023-03-27T10:34:55.651Z,101902.28
2023-03-27T10:37:41.550Z,101828.84
2023-03-27T10:40:43.126Z,101957.16
2023-03-27T10:43:32.981Z,101975.59
2023-03-27T10:46:06.329Z,101894.72
2023-03-27T10:48:53.489Z,101959.38
2023-03-27T10:51:45.860Z,101923.53
2023-03-27T10:54:21.132Z,101962.50
2023-03-27T10:57:12.468Z,101983.38
2023-03-27T10:59:51.580Z,101990.81
2023-03-27T11:02:34.186Z,101862.22
2023-03-27T11:05:39.458Z,101976.97
2023-03-27T11:08:51.303Z,101984.03
2023-03-27T11:11:27.552Z,101960.31
2023-03-27T11:14:02.366Z,101967.50
2023-03-27T11:16:41.023Z,101950.63
2023-03-27T11:19:52.585Z,101900.44
2023-03-27T11:23:04.605Z,101955.47
2023-03-27T11:25:46.467Z,101981.53
2023-03-27T11:28:55.008Z,101978.16
2023-03-27T11:31:40.891Z,101959.00
2023-03-27T11:34:34.026Z,101962.53
2023-03-27T11:37:51.672Z,101987.94
2023-03-27T11:40:20.272Z,101961.34
2023-03-27T11:42:50.984Z,101962.16
2023-03-27T11:45:23.459Z,101958.56
2023-03-27T11:48:16.376Z,101961.94
2023-03-27T11:51:15.756Z,102000.78
2023-03-27T11:54:24.275Z,101996.91
2023-03-27T11:56:57.967Z,101915.13
2023-03-27T12:00:27.580Z,102028.16
2023-03-27T12:03:25.871Z,102042.06
2023-03-27T12:06:20.841Z,102058.69
2023-03-27T12:09:17.800Z,101910.28
2023-03-27T12:12:25.446Z,101906.28
2023-03-27T12:14:52.140Z,102030.97
2023-03-27T12:17:44.667Z,102039.63
2023-03-27T12:20:29.637Z,102036.56
2023-03-27T12:23:30.527Z,102027.47
2023-03-27T12:26:35.132Z,102021.63
2023-03-27T12:29:39.623Z,102020.38
2023-03-27T12:32:08.160Z,102004.69
2023-03-27T12:34:43.884Z,101894.50
2023-03-27T12:37:13.662Z,101987.16
2023-03-27T12:39:53.929Z,101963.38
2023-03-27T12:42:43.893Z,101973.06
2023-03-27T12:45:19.522Z,102001.66
2023-03-27T12:48:11.651Z,102040.59
2023-03-27T12:50:53.589Z,102044.59
2023-03-27T12:53:50.970Z,102046.81
2023-03-27T12:56:17.727Z,102031.28
2023-03-27T12:58:51.459Z,101990.06
2023-03-27T13:01:51.859Z,102012.03
2023-03-27T13:04:24.873Z,102019.38
2023-03-27T13:07:00.133Z,102019.09
2023-03-27T13:10:07.585Z,102024.78
2023-03-27T13:12:57.507Z,102031.09
2023-03-27T13:15:50.093Z,102012.03
2023-03-27T13:19:10.434Z,101924.06
2023-03-27T13:22:06.044Z,101998.34
2023-03-27T13:24:50.351Z,101916.72
2023-03-27T13:27:37.898Z,102016.75
2023-03-27T13:30:05.758Z,101979.88
2023-03-27T13:33:30.117Z,102001.50
2023-03-27T13:35:57.572Z,102011.00
2023-03-27T13:38:53.189Z,102040.72
2023-03-27T13:41:45.684Z,102073.94
2023-03-27T13:44:30.877Z,102067.22
2023-03-27T13:47:09.856Z,101994.84
2023-03-27T13:49:46.067Z,102071.00
2023-03-27T13:52:46.465Z,102080.34
2023-03-27T13:55:17.145Z,102078.69
2023-03-27T13:58:31.205Z,102080.16
2023-03-27T14:01:07.742Z,102074.41
2023-03-27T14:04:23.862Z,102072.09
2023-03-27T14:07:38.232Z,102064.63
2023-03-27T14:10:34.383Z,102067.19
2023-03-27T14:13:22.611Z,102059.91
2023-03-27T14:16:03.203Z,102066.88
2023-03-27T14:19:19.560Z,102053.63
2023-03-27T14:22:24.197Z,101965.56
2023-03-27T14:25:12.428Z,101979.78
2023-03-27T14:27:48.776Z,101794.03
2023-03-27T14:30:21.552Z,102054.50
2023-03-27T14:33:06.451Z,102009.97
2023-03-27T14:35:38.027Z,102032.91
2023-03-27T14:38:35.938Z,102056.25
2023-03-27T14:41:05.914Z,102048.00
2023-03-27T14:43:52.283Z,102051.16
2023-03-27T14:46:22.797Z,102078.59
2023-03-27T14:48:57.968Z,102083.22
2023-03-27T14:51:37.622Z,102062.28
2023-03-27T14:54:26.463Z,102060.16
2023-03-27T14:57:00.238Z,102083.72
2023-03-27T14:59:29.887Z,102112.16
2023-03-27T15:02:04.342Z,102074.19
2023-03-27T15:04:33.370Z,102084.81
2023-03-27T15:07:18.757Z,102083.53
2023-03-27T15:10:28.142Z,102108.84
2023-03-27T15:13:34.052Z,102085.75
2023-03-27T15:16:00.992Z,101997.72
2023-03-27T15:18:33.312Z,102121.38
2023-03-27T15:21:14.408Z,102088.06
2023-03-27T15:24:10.707Z,102118.19
2023-03-27T15:26:39.269Z,102051.19
2023-03-27T15:29:42.888Z,102119.16
2023-03-27T15:32:18.806Z,102147.41
2023-03-27T15:34:51.216Z,102135.97
2023-03-27T15:37:25.430Z,102000.53
2023-03-27T15:39:59.386Z,102151.41
2023-03-27T15:42:32.643Z,102004.78
2023-03-27T15:45:03.119Z,102147.22
2023-03-27T15:47:31.370Z,102054.50
2023-03-27T15:50:16.829Z,102121.13
2023-03-27T15:52:48.415Z,102128.03
2023-03-27T15:55:33.091Z,102040.75
2023-03-27T15:58:00.244Z,102120.38
2023-03-27T16:00:28.863Z,102127.50
2023-03-27T16:02:56.339Z,102111.00
2023-03-27T16:05:23.161Z,102113.09
2023-03-27T16:07:49.962Z,102125.44
2023-03-27T16:10:31.849Z,102170.25
2023-03-27T16:13:02.794Z,102061.75
2023-03-27T16:15:35.909Z,102173.28
2023-03-27T16:18:15.926Z,102180.94
2023-03-27T16:20:45.227Z,102184.66
2023-03-27T16:23:11.884Z,102193.13
2023-03-27T16:25:39.006Z,102162.66
2023-03-27T16:28:07.751Z,102195.16
2023-03-27T16:30:38.711Z,102187.84
2023-03-27T16:33:17.079Z,102160.28
2023-03-27T16:35:45.809Z,102185.13
2023-03-27T16:38:14.266Z,102174.38
2023-03-27T16:40:41.158Z,102092.84
2023-03-27T16:43:07.861Z,102072.78
2023-03-27T16:45:34.752Z,102190.56
2023-03-27T16:48:01.546Z,102195.88
2023-03-27T16:50:29.691Z,102102.91
2023-03-27T16:52:56.938Z,102191.44
2023-03-27T16:55:24.100Z,102180.50
2023-03-27T16:57:52.440Z,102101.28
2023-03-27T17:00:20.083Z,102068.81
2023-03-27T17:02:47.068Z,102193.44
2023-03-27T17:05:14.644Z,102132.56
2023-03-27T17:07:41.857Z,102091.88
2023-03-27T17:10:10.183Z,102191.81
2023-03-27T17:12:36.916Z,102185.78
2023-03-27T17:15:04.005Z,102063.13
2023-03-27T17:17:30.846Z,102188.09
2023-03-27T17:19:57.587Z,102222.72
2023-03-27T17:22:26.354Z,102197.91
2023-03-27T17:24:56.818Z,102214.16
2023-03-27T17:27:26.316Z,102152.69
2023-03-27T17:29:55.465Z,102155.34
2023-03-27T17:32:22.575Z,102249.63
2023-03-27T17:34:50.832Z,102243.25
2023-03-27T17:37:18.802Z,102212.50
2023-03-27T17:39:45.375Z,102128.53
2023-03-27T17:42:12.005Z,102141.34
2023-03-27T17:44:39.582Z,102218.25
2023-03-27T17:47:07.541Z,102210.00
2023-03-27T17:49:34.832Z,102247.06
2023-03-27T17:52:07.562Z,102207.63
2023-03-27T17:54:34.842Z,102254.91
2023-03-27T17:57:01.916Z,102248.47
2023-03-27T17:59:30.899Z,102170.00
2023-03-27T18:01:58.398Z,102243.88
2023-03-27T18:04:25.209Z,102188.03
2023-03-27T18:06:52.447Z,102223.69
2023-03-27T18:09:19.349Z,102236.75
2023-03-27T18:11:46.035Z,102270.78
2023-03-27T18:14:12.766Z,102237.81
2023-03-27T18:16:39.424Z,102250.34
2023-03-27T18:19:06.071Z,102173.50
2023-03-27T18:21:32.704Z,102256.84
2023-03-27T18:24:01.730Z,102253.41
2023-03-27T18:26:28.495Z,102172.66
2023-03-27T18:28:55.232Z,102310.03
2023-03-27T18:31:21.911Z,102268.34
2023-03-27T18:33:48.711Z,102267.34
2023-03-27T18:36:15.364Z,102281.78
2023-03-27T18:38:42.433Z,102285.03
2023-03-27T18:41:10.483Z,102225.09
2023-03-27T18:43:37.325Z,102299.19
2023-03-27T18:46:06.018Z,102289.72
2023-03-27T18:48:33.379Z,102274.63
2023-03-27T18:51:02.624Z,102315.84
2023-03-27T18:53:30.294Z,102296.34
2023-03-27T18:55:58.412Z,102337.75
2023-03-27T18:58:27.626Z,102335.94
2023-03-27T19:00:55.688Z,102334.56
2023-03-27T19:03:24.997Z,102305.19
2023-03-27T19:05:52.825Z,102301.25
2023-03-27T19:08:21.247Z,102292.47
2023-03-27T19:10:48.271Z,102238.88
2023-03-27T19:13:24.625Z,102219.72
2023-03-27T19:16:19.921Z,102345.72
2023-03-27T19:19:15.551Z,102318.66
2023-03-27T19:21:51.136Z,102297.16
2023-03-27T19:24:31.122Z,102288.13
2023-03-27T19:26:58.819Z,102334.47
2023-03-27T19:29:25.763Z,102351.34
2023-03-27T19:31:53.426Z,102316.75
2023-03-27T19:34:32.690Z,102205.31
2023-03-27T19:37:08.416Z,102280.78
2023-03-27T19:39:35.150Z,102319.69
2023-03-27T19:42:02.104Z,102196.03
2023-03-27T19:44:28.762Z,102317.22
2023-03-27T19:46:55.507Z,102337.53
2023-03-27T19:49:22.153Z,102291.19
2023-03-27T19:52:04.355Z,102315.56
2023-03-27T19:54:31.384Z,102355.81
2023-03-27T19:56:58.201Z,102327.88
2023-03-27T19:59:30.722Z,102238.06
2023-03-27T20:01:58.419Z,102232.84
2023-03-27T20:04:25.397Z,102307.09
2023-03-27T20:06:52.131Z,102305.38
2023-03-27T20:09:19.231Z,102352.69
2023-03-27T20:11:46.675Z,102245.13
2023-03-27T20:14:13.703Z,102252.16
2023-03-27T20:16:40.495Z,102358.59
2023-03-27T20:19:09.220Z,102318.56
2023-03-27T20:21:39.009Z,102278.88
2023-03-27T20:24:10.668Z,102337.25
2023-03-27T20:26:41.811Z,102368.72
2023-03-27T20:29:18.428Z,102331.88
2023-03-27T20:31:46.356Z,102270.25
2023-03-27T20:34:13.076Z,102306.44
2023-03-27T20:36:43.367Z,102347.84
2023-03-27T20:39:34.764Z,102348.06
2023-03-27T20:42:01.422Z,102382.56
2023-03-27T20:44:35.974Z,102331.13
2023-03-27T20:47:03.497Z,102384.63
2023-03-27T20:49:40.855Z,102388.81
2023-03-27T20:52:09.972Z,102336.00
2023-03-27T20:54:36.826Z,102351.22
2023-03-27T20:57:03.807Z,102360.06
2023-03-27T20:59:31.056Z,102394.78
2023-03-27T21:01:59.333Z,102352.94
2023-03-27T21:04:28.344Z,102359.75
2023-03-27T21:06:55.603Z,102352.66
2023-03-27T21:09:23.436Z,102326.00
2023-03-27T21:11:53.439Z,102392.28
2023-03-27T21:14:20.565Z,102360.81
2023-03-27T21:16:47.654Z,102343.44
2023-03-27T21:19:14.471Z,102268.47
2023-03-27T21:21:41.282Z,102370.84
2023-03-27T21:24:08.009Z,102401.88
2023-03-27T21:26:35.303Z,102399.56
2023-03-27T21:29:03.290Z,102401.16
2023-03-27T21:31:30.695Z,102360.13
2023-03-27T21:33:57.876Z,102408.50
2023-03-27T21:36:26.419Z,102376.34
2023-03-27T21:38:54.596Z,102333.22
2023-03-27T21:41:21.672Z,102363.72
2023-03-27T21:43:48.257Z,102396.25
2023-03-27T21:46:14.989Z,102385.75
2023-03-27T21:48:44.005Z,102359.25
2023-03-27T21:51:10.924Z,102408.88
2023-03-27T21:53:37.648Z,102384.91
2023-03-27T21:56:04.536Z,102330.44
2023-03-27T21:58:31.194Z,102399.22
2023-03-27T22:00:58.437Z,102404.97
2023-03-27T22:03:26.899Z,102395.84
2023-03-27T22:06:07.755Z,102403.56
2023-03-27T22:08:36.696Z,102405.44
2023-03-27T22:11:03.473Z,102427.69
2023-03-27T22:13:30.201Z,102379.13
2023-03-27T22:15:57.141Z,102395.94
2023-03-27T22:18:24.796Z,102312.84
2023-03-27T22:20:51.453Z,102428.63
2023-03-27T22:23:18.059Z,102417.59
2023-03-27T22:25:52.138Z,102408.63
2023-03-27T22:28:18.679Z,102384.09
2023-03-27T22:30:45.397Z,102382.00
2023-03-27T22:33:11.950Z,102329.38
2023-03-27T22:35:38.679Z,102424.66
2023-03-27T22:38:05.254Z,102433.66
2023-03-27T22:40:31.872Z,102423.09
2023-03-27T22:42:58.516Z,102432.22
2023-03-27T22:45:25.228Z,102426.72
2023-03-27T22:47:51.984Z,102430.41
2023-03-27T22:50:18.543Z,102351.44
2023-03-27T22:52:45.356Z,102402.00
2023-03-27T22:55:11.953Z,102446.06
2023-03-27T22:57:38.617Z,102438.00
2023-03-27T23:00:06.888Z,102418.69
2023-03-27T23:02:33.741Z,102449.09
2023-03-27T23:05:00.732Z,102425.88
2023-03-27T23:07:31.723Z,102435.91
2023-03-27T23:09:58.342Z,102447.00
2023-03-27T23:12:24.900Z,102413.09
2023-03-27T23:14:51.698Z,102428.75
2023-03-27T23:17:18.379Z,102329.81
2023-03-27T23:19:46.152Z,102433.56
2023-03-27T23:22:12.778Z,102450.78
2023-03-27T23:24:39.440Z,102461.72
2023-03-27T23:27:08.313Z,102443.47
2023-03-27T23:29:35.311Z,102428.50
2023-03-27T23:32:01.978Z,102444.13
2023-03-27T23:34:28.738Z,102440.22
2023-03-27T23:36:55.422Z,102466.44
2023-03-27T23:39:22.067Z,102341.53
2023-03-27T23:41:48.682Z,102434.09
2023-03-27T23:44:15.351Z,102380.50
2023-03-27T23:46:41.888Z,102412.72
2023-03-27T23:49:08.468Z,102465.91
2023-03-27T23:51:35.139Z,102407.22
2023-03-27T23:54:01.738Z,102473.22
2023-03-27T23:56:28.413Z,102473.09
2023-03-27T23:58:55.108Z,102433.56
